createdAt,value
2023-02-28T00:00:27.848Z,8.27
2023-02-28T00:02:54.399Z,8.02
2023-02-28T00:05:22.880Z,8.45
2023-02-28T00:07:50.101Z,9.02
2023-02-28T00:10:21.585Z,8.77
2023-02-28T00:12:49.358Z,8.85
2023-02-28T00:15:16.580Z,8.20
2023-02-28T00:17:43.771Z,8.32
2023-02-28T00:20:12.649Z,9.20
2023-02-28T00:22:41.569Z,9.18
2023-02-28T00:25:09.345Z,8.40
2023-02-28T00:27:37.407Z,9.63
2023-02-28T00:30:05.066Z,8.48
2023-02-28T00:32:31.659Z,9.25
2023-02-28T00:34:58.220Z,8.60
2023-02-28T00:37:25.171Z,9.43
2023-02-28T00:39:51.772Z,9.10
2023-02-28T00:42:18.298Z,10.93
2023-02-28T00:44:44.865Z,9.10
2023-02-28T00:47:11.449Z,9.75
2023-02-28T00:49:38.214Z,9.25
2023-02-28T00:52:04.959Z,7.97
2023-02-28T00:54:31.487Z,9.63
2023-02-28T00:56:58.067Z,9.15
2023-02-28T00:59:24.647Z,9.80
2023-02-28T01:01:51.271Z,9.82
2023-02-28T01:04:18.054Z,9.02
2023-02-28T01:06:44.830Z,9.30
2023-02-28T01:09:11.562Z,9.57
2023-02-28T01:11:38.535Z,9.77
2023-02-28T01:14:05.395Z,9.35
2023-02-28T01:16:32.103Z,9.30
2023-02-28T01:18:58.724Z,9.68
2023-02-28T01:21:25.547Z,10.02
2023-02-28T01:23:52.446Z,10.20
2023-02-28T01:26:23.360Z,10.73
2023-02-28T01:28:51.488Z,9.60
2023-02-28T01:31:19.144Z,10.48
2023-02-28T01:33:46.187Z,10.48
2023-02-28T01:36:15.491Z,9.23
2023-02-28T01:38:42.309Z,9.75
2023-02-28T01:41:13.700Z,10.65
2023-02-28T01:43:43.189Z,10.65
2023-02-28T01:46:10.787Z,9.98
2023-02-28T01:48:42.755Z,9.32
2023-02-28T01:51:19.374Z,11.38
2023-02-28T01:53:51.822Z,10.32
2023-02-28T01:56:24.212Z,10.27
2023-02-28T01:58:52.747Z,11.80
2023-02-28T02:01:23.499Z,11.00
2023-02-28T02:03:56.297Z,10.27
2023-02-28T02:06:39.032Z,10.10
2023-02-28T02:09:05.723Z,10.85
2023-02-28T02:11:32.448Z,10.52
2023-02-28T02:14:28.499Z,10.82
2023-02-28T02:17:27.342Z,9.88
2023-02-28T02:20:17.127Z,11.10
2023-02-28T02:22:49.439Z,10.27
2023-02-28T02:25:30.183Z,9.75
2023-02-28T02:28:23.834Z,11.30
2023-02-28T02:31:12.028Z,11.27
2023-02-28T02:34:03.242Z,11.43
2023-02-28T02:39:30.650Z,10.32
2023-02-28T02:42:02.535Z,11.00
2023-02-28T02:44:35.340Z,9.77
2023-02-28T02:47:10.592Z,10.13
2023-02-28T02:49:39.326Z,10.00
2023-02-28T02:52:08.956Z,9.23
2023-02-28T02:54:40.309Z,11.60
2023-02-28T02:57:16.681Z,10.90
2023-02-28T02:59:44.893Z,11.23
2023-02-28T03:02:15.539Z,10.25
2023-02-28T03:04:49.393Z,10.57
2023-02-28T03:07:15.952Z,10.23
2023-02-28T03:09:58.456Z,10.27
2023-02-28T03:12:34.854Z,10.30
2023-02-28T03:15:18.614Z,10.68
2023-02-28T03:18:09.276Z,10.02
2023-02-28T03:20:38.658Z,9.93
2023-02-28T03:23:17.284Z,11.02
2023-02-28T03:26:04.817Z,10.20
2023-02-28T03:28:42.636Z,10.68
2023-02-28T03:31:18.152Z,10.70
2023-02-28T03:33:55.738Z,10.82
2023-02-28T03:36:31.824Z,10.32
2023-02-28T03:39:09.316Z,10.23
2023-02-28T03:41:53.732Z,10.13
2023-02-28T03:44:28.498Z,10.73
2023-02-28T03:47:03.681Z,9.65
2023-02-28T03:49:36.031Z,11.32
2023-02-28T03:52:07.014Z,10.95
2023-02-28T03:54:39.002Z,10.55
2023-02-28T03:57:23.970Z,10.07
2023-02-28T04:00:08.166Z,11.32
2023-02-28T04:02:35.009Z,9.60
2023-02-28T04:05:02.097Z,10.65
2023-02-28T04:07:32.091Z,10.85
2023-02-28T04:09:59.499Z,10.40
2023-02-28T04:12:26.371Z,10.20
2023-02-28T04:14:52.924Z,10.43
2023-02-28T04:17:19.900Z,10.63
2023-02-28T04:19:46.416Z,9.55
2023-02-28T04:22:13.005Z,10.43
2023-02-28T04:24:42.262Z,11.20
2023-02-28T04:27:10.231Z,10.27
2023-02-28T04:29:36.937Z,10.82
2023-02-28T04:32:04.047Z,9.82
2023-02-28T04:34:32.566Z,10.02
2023-02-28T04:37:12.261Z,9.25
2023-02-28T04:39:40.302Z,10.38
2023-02-28T04:42:07.124Z,10.50
2023-02-28T04:44:33.695Z,11.18
2023-02-28T04:47:00.288Z,11.05
2023-02-28T04:49:26.986Z,10.55
2023-02-28T04:51:53.977Z,9.80
2023-02-28T04:54:20.640Z,10.48
2023-02-28T04:56:49.335Z,10.18
2023-02-28T04:59:15.969Z,9.82
2023-02-28T05:01:47.686Z,10.50
2023-02-28T05:04:14.571Z,10.02
2023-02-28T05:06:41.110Z,10.52
2023-02-28T05:09:07.716Z,10.85
2023-02-28T05:11:36.308Z,10.13
2023-02-28T05:14:10.790Z,11.05
2023-02-28T05:16:37.391Z,9.35
2023-02-28T05:19:04.214Z,10.25
2023-02-28T05:21:35.395Z,9.55
2023-02-28T05:26:30.962Z,10.27
2023-02-28T05:28:58.311Z,10.25
2023-02-28T05:31:25.021Z,10.90
2023-02-28T05:33:52.390Z,11.07
2023-02-28T05:36:19.509Z,9.73
2023-02-28T05:38:50.736Z,10.27
2023-02-28T05:41:20.172Z,12.50
2023-02-28T05:43:47.137Z,9.57
2023-02-28T05:46:14.186Z,10.00
2023-02-28T05:48:46.260Z,9.45
2023-02-28T05:51:12.882Z,9.55
2023-02-28T05:53:39.470Z,9.90
2023-02-28T05:56:06.694Z,10.27
2023-02-28T05:58:33.546Z,10.07
2023-02-28T06:01:01.180Z,10.00
2023-02-28T06:03:28.440Z,10.25
2023-02-28T06:05:55.096Z,10.15
2023-02-28T06:08:21.781Z,9.95
2023-02-28T06:10:48.470Z,9.98
2023-02-28T06:13:15.519Z,10.25
2023-02-28T06:15:42.370Z,10.35
2023-02-28T06:18:09.043Z,10.23
2023-02-28T06:20:37.042Z,9.85
2023-02-28T06:23:03.659Z,10.48
2023-02-28T06:25:30.223Z,8.73
2023-02-28T06:27:56.900Z,9.55
2023-02-28T06:30:27.643Z,9.45
2023-02-28T06:32:55.291Z,10.07
2023-02-28T06:35:22.298Z,9.93
2023-02-28T06:37:48.976Z,10.13
2023-02-28T06:40:16.091Z,10.45
2023-02-28T06:42:42.930Z,9.95
2023-02-28T06:45:11.015Z,10.25
2023-02-28T06:47:40.343Z,10.15
2023-02-28T06:50:10.182Z,11.18
2023-02-28T06:52:39.688Z,11.93
2023-02-28T06:55:07.995Z,9.82
2023-02-28T06:57:35.964Z,10.70
2023-02-28T07:00:07.016Z,10.68
2023-02-28T07:05:00.054Z,11.13
2023-02-28T07:07:26.594Z,10.45
2023-02-28T07:09:53.127Z,10.23
2023-02-28T07:12:19.784Z,10.05
2023-02-28T07:14:46.335Z,10.00
2023-02-28T07:17:13.136Z,10.38
2023-02-28T07:19:40.422Z,10.13
2023-02-28T07:22:07.670Z,11.07
2023-02-28T07:24:34.318Z,11.10
2023-02-28T07:27:01.711Z,10.27
2023-02-28T07:29:28.367Z,11.38
2023-02-28T07:31:54.966Z,11.88
2023-02-28T07:34:21.925Z,10.98
2023-02-28T07:36:48.486Z,11.60
2023-02-28T07:39:15.041Z,11.20
2023-02-28T07:41:44.369Z,11.52
2023-02-28T07:44:12.040Z,10.85
2023-02-28T07:46:39.064Z,11.82
2023-02-28T07:49:06.408Z,10.57
2023-02-28T07:51:33.184Z,12.18
2023-02-28T07:53:59.858Z,11.10
2023-02-28T07:56:26.454Z,11.25
2023-02-28T07:58:53.108Z,12.02
2023-02-28T08:01:20.381Z,10.65
2023-02-28T08:03:47.038Z,11.23
2023-02-28T08:06:24.935Z,12.45
2023-02-28T08:08:51.983Z,11.13
2023-02-28T08:11:18.835Z,11.60
2023-02-28T08:13:46.104Z,11.95
2023-02-28T08:16:22.084Z,11.15
2023-02-28T08:18:53.011Z,12.18
2023-02-28T08:21:21.106Z,11.48
2023-02-28T08:23:49.759Z,11.68
2023-02-28T08:26:17.850Z,11.68
2023-02-28T08:28:45.290Z,11.82
2023-02-28T08:31:14.327Z,11.13
2023-02-28T08:33:41.437Z,11.98
2023-02-28T08:36:09.427Z,12.48
2023-02-28T08:38:37.164Z,12.27
2023-02-28T08:41:08.080Z,11.77
2023-02-28T08:43:35.444Z,11.63
2023-02-28T08:46:02.296Z,11.23
2023-02-28T08:48:30.714Z,12.38
2023-02-28T08:51:08.990Z,13.07
2023-02-28T08:53:40.320Z,11.50
2023-02-28T08:56:09.842Z,11.45
2023-02-28T08:58:36.644Z,12.35
2023-02-28T09:01:16.254Z,12.75
2023-02-28T09:03:43.653Z,12.07
2023-02-28T09:06:12.341Z,12.25
2023-02-28T09:08:39.264Z,11.90
2023-02-28T09:11:06.291Z,12.90
2023-02-28T09:13:33.912Z,11.38
2023-02-28T09:16:02.597Z,12.20
2023-02-28T09:18:30.173Z,11.40
2023-02-28T09:20:57.370Z,11.20
2023-02-28T09:23:24.460Z,12.10
2023-02-28T09:25:55.540Z,11.90
2023-02-28T09:30:51.396Z,10.70
2023-02-28T09:33:21.548Z,13.07
2023-02-28T09:35:51.346Z,12.83
2023-02-28T09:38:18.765Z,11.50
2023-02-28T09:40:54.547Z,12.95
2023-02-28T09:43:26.193Z,10.70
2023-02-28T09:46:12.498Z,12.65
2023-02-28T09:48:44.747Z,11.57
2023-02-28T09:51:27.949Z,11.85
2023-02-28T09:54:01.358Z,11.75
2023-02-28T09:56:39.739Z,11.50
2023-02-28T09:59:39.514Z,12.95
2023-02-28T10:02:53.793Z,11.65
2023-02-28T10:05:29.554Z,12.25
2023-02-28T10:08:10.233Z,12.55
2023-02-28T10:10:47.664Z,11.48
2023-02-28T10:13:35.785Z,11.55
2023-02-28T10:16:14.968Z,12.20
2023-02-28T10:18:53.576Z,11.93
2023-02-28T10:21:30.966Z,11.70
2023-02-28T10:24:18.721Z,12.98
2023-02-28T10:26:48.187Z,12.35
2023-02-28T10:29:14.993Z,10.73
2023-02-28T10:31:41.748Z,14.00
2023-02-28T10:34:12.611Z,13.32
2023-02-28T10:36:39.963Z,11.38
2023-02-28T10:39:44.908Z,12.30
2023-02-28T10:42:27.320Z,12.73
2023-02-28T10:45:17.401Z,13.07
2023-02-28T10:48:00.133Z,11.68
2023-02-28T10:50:46.210Z,12.95
2023-02-28T10:53:27.828Z,12.50
2023-02-28T10:56:03.296Z,11.90
2023-02-28T10:58:50.665Z,12.48
2023-02-28T11:01:42.346Z,11.73
2023-02-28T11:04:24.022Z,12.55
2023-02-28T11:07:02.699Z,11.75
2023-02-28T11:09:37.291Z,12.02
2023-02-28T11:12:07.846Z,12.25
2023-02-28T11:14:48.424Z,11.65
2023-02-28T11:17:21.017Z,11.95
2023-02-28T11:19:50.840Z,12.07
2023-02-28T11:22:21.542Z,11.85
2023-02-28T11:24:53.057Z,11.45
2023-02-28T11:27:32.714Z,13.52
2023-02-28T11:30:00.099Z,12.38
2023-02-28T11:32:29.788Z,11.95
2023-02-28T11:35:23.308Z,13.45
2023-02-28T11:37:49.826Z,13.30
2023-02-28T11:40:19.473Z,12.63
2023-02-28T11:43:23.738Z,12.35
2023-02-28T11:46:23.218Z,12.73
2023-02-28T11:49:01.696Z,12.48
2023-02-28T11:51:57.417Z,12.27
2023-02-28T11:54:33.011Z,13.52
2023-02-28T11:57:35.266Z,11.73
2023-02-28T12:00:06.294Z,11.45
2023-02-28T12:05:30.407Z,12.38
2023-02-28T12:08:41.196Z,12.57
2023-02-28T12:11:33.600Z,11.98
2023-02-28T12:14:24.802Z,15.70
2023-02-28T12:17:20.096Z,12.77
2023-02-28T12:20:06.370Z,12.73
2023-02-28T12:22:56.078Z,11.93
2023-02-28T12:25:51.466Z,12.82
2023-02-28T12:28:24.790Z,12.38
2023-02-28T12:31:07.108Z,13.18
2023-02-28T12:33:37.402Z,12.35
2023-02-28T12:36:13.086Z,12.75
2023-02-28T12:38:51.485Z,14.10
2023-02-28T12:41:23.657Z,13.05
2023-02-28T12:44:01.133Z,13.75
2023-02-28T12:46:35.450Z,12.10
2023-02-28T12:49:09.114Z,13.45
2023-02-28T12:51:36.548Z,14.23
2023-02-28T12:54:21.030Z,17.92
2023-02-28T12:57:15.369Z,16.92
2023-02-28T12:59:56.838Z,13.23
2023-02-28T13:02:43.788Z,12.68
2023-02-28T13:05:23.738Z,13.27
2023-02-28T13:08:15.575Z,12.05
2023-02-28T13:10:48.798Z,13.98
2023-02-28T13:13:22.791Z,16.98
2023-02-28T13:15:58.455Z,14.55
2023-02-28T13:18:40.452Z,15.18
2023-02-28T13:21:22.976Z,14.02
2023-02-28T13:23:56.631Z,13.30
2023-02-28T13:26:32.114Z,14.85
2023-02-28T13:29:01.600Z,13.30
2023-02-28T13:31:28.972Z,14.43
2023-02-28T13:33:57.660Z,14.27
2023-02-28T13:36:33.008Z,13.80
2023-02-28T13:39:24.432Z,14.20
2023-02-28T13:41:51.018Z,14.30
2023-02-28T13:44:27.462Z,13.63
2023-02-28T13:46:56.831Z,14.00
2023-02-28T13:49:23.671Z,14.18
2023-02-28T13:51:53.412Z,15.25
2023-02-28T13:54:36.703Z,13.70
2023-02-28T13:57:40.761Z,13.05
2023-02-28T14:00:17.868Z,13.73
2023-02-28T14:03:02.583Z,13.15
2023-02-28T14:05:31.504Z,13.88
2023-02-28T14:07:59.988Z,13.45
2023-02-28T14:10:31.624Z,13.75
2023-02-28T14:13:01.853Z,14.88
2023-02-28T14:15:34.926Z,14.40
2023-02-28T14:18:06.496Z,13.07
2023-02-28T14:20:34.872Z,12.80
2023-02-28T14:23:10.416Z,14.13
2023-02-28T14:26:09.233Z,13.80
2023-02-28T14:28:57.518Z,13.70
2023-02-28T14:31:36.501Z,14.05
2023-02-28T14:34:32.959Z,14.18
2023-02-28T14:37:02.403Z,14.65
2023-02-28T14:39:31.773Z,14.90
2023-02-28T14:42:05.834Z,15.60
2023-02-28T14:44:32.980Z,15.70
2023-02-28T14:47:07.121Z,15.48
2023-02-28T14:49:38.522Z,14.48
2023-02-28T14:52:13.128Z,14.15
2023-02-28T14:54:40.870Z,15.63
2023-02-28T14:57:07.609Z,15.40
2023-02-28T14:59:36.878Z,16.35
2023-02-28T15:02:24.922Z,16.27
2023-02-28T15:05:10.548Z,16.77
2023-02-28T15:07:37.370Z,16.05
2023-02-28T15:10:25.458Z,16.60
2023-02-28T15:12:59.305Z,16.83
2023-02-28T15:16:01.186Z,16.20
2023-02-28T15:18:57.420Z,15.18
2023-02-28T15:21:47.191Z,16.30
2023-02-28T15:24:37.894Z,16.55
2023-02-28T15:27:08.935Z,16.88
2023-02-28T15:32:33.110Z,17.27
2023-02-28T15:35:38.094Z,16.83
2023-02-28T15:38:22.199Z,17.45
2023-02-28T15:40:56.375Z,16.75
2023-02-28T15:43:37.573Z,18.30
2023-02-28T15:48:36.881Z,17.67
2023-02-28T15:51:07.406Z,17.08
2023-02-28T15:53:57.708Z,18.80
2023-02-28T15:56:30.185Z,17.93
2023-02-28T15:58:58.529Z,18.40
2023-02-28T16:01:35.403Z,17.75
2023-02-28T16:04:05.440Z,17.50
2023-02-28T16:06:42.942Z,19.40
2023-02-28T16:09:12.412Z,20.25
2023-02-28T16:11:47.888Z,17.70
2023-02-28T16:14:21.174Z,18.25
2023-02-28T16:16:51.362Z,19.58
2023-02-28T16:19:18.587Z,18.67
2023-02-28T16:21:45.708Z,18.58
2023-02-28T16:24:12.712Z,19.30
2023-02-28T16:26:41.817Z,19.00
2023-02-28T16:29:10.485Z,18.63
2023-02-28T16:31:39.055Z,18.20
2023-02-28T16:34:06.351Z,18.27
2023-02-28T16:36:33.076Z,19.02
2023-02-28T16:38:59.673Z,18.98
2023-02-28T16:41:28.618Z,19.52
2023-02-28T16:43:59.716Z,18.90
2023-02-28T16:46:32.527Z,20.20
2023-02-28T16:48:59.099Z,22.42
2023-02-28T16:51:25.700Z,19.85
2023-02-28T16:53:52.635Z,19.60
2023-02-28T16:56:25.054Z,20.02
2023-02-28T16:58:52.714Z,20.85
2023-02-28T17:01:22.723Z,20.83
2023-02-28T17:03:50.350Z,19.90
2023-02-28T17:06:31.505Z,19.65
2023-02-28T17:09:00.078Z,19.40
2023-02-28T17:11:27.798Z,19.88
2023-02-28T17:13:54.851Z,19.98
2023-02-28T17:16:31.439Z,20.65
2023-02-28T17:19:01.155Z,20.45
2023-02-28T17:21:28.493Z,29.38
2023-02-28T17:23:55.162Z,20.25
2023-02-28T17:26:25.170Z,20.15
2023-02-28T17:28:52.742Z,21.67
2023-02-28T17:31:19.527Z,22.23
2023-02-28T17:33:46.045Z,20.35
2023-02-28T17:36:16.152Z,24.33
2023-02-28T17:38:43.265Z,21.08
2023-02-28T17:41:12.156Z,22.33
2023-02-28T17:43:39.093Z,22.15
2023-02-28T17:46:06.766Z,21.92
2023-02-28T17:48:34.281Z,22.52
2023-02-28T17:51:00.866Z,21.23
2023-02-28T17:53:28.017Z,20.90
2023-02-28T17:55:54.577Z,21.63
2023-02-28T17:58:21.349Z,21.30
2023-02-28T18:00:48.635Z,22.92
2023-02-28T18:03:15.277Z,20.95
2023-02-28T18:05:41.919Z,21.77
2023-02-28T18:08:11.404Z,21.80
2023-02-28T18:10:37.924Z,21.80
2023-02-28T18:13:04.583Z,23.02
2023-02-28T18:15:31.193Z,22.88
2023-02-28T18:17:57.832Z,21.55
2023-02-28T18:20:24.458Z,22.27
2023-02-28T18:22:51.084Z,22.45
2023-02-28T18:25:17.933Z,22.15
2023-02-28T18:27:58.138Z,20.17
2023-02-28T18:30:33.181Z,21.20
2023-02-28T18:33:00.994Z,22.73
2023-02-28T18:35:37.423Z,23.15
2023-02-28T18:38:07.157Z,22.70
2023-02-28T18:40:34.198Z,23.42
2023-02-28T18:43:01.684Z,22.23
2023-02-28T18:45:28.342Z,22.20
2023-02-28T18:47:54.978Z,23.85
2023-02-28T18:50:21.535Z,22.92
2023-02-28T18:52:48.207Z,22.17
2023-02-28T18:55:18.694Z,20.90
2023-02-28T18:57:48.537Z,22.10
2023-02-28T19:00:18.048Z,23.10
2023-02-28T19:02:44.569Z,22.23
2023-02-28T19:05:12.117Z,21.80
2023-02-28T19:07:39.037Z,22.15
2023-02-28T19:10:06.111Z,21.92
2023-02-28T19:12:37.259Z,21.48
2023-02-28T19:15:05.756Z,21.38
2023-02-28T19:17:33.594Z,21.98
2023-02-28T19:20:00.273Z,22.40
2023-02-28T19:22:26.875Z,23.10
2023-02-28T19:24:53.446Z,22.85
2023-02-28T19:27:20.059Z,22.05
2023-02-28T19:29:51.212Z,21.65
2023-02-28T19:32:19.733Z,22.15
2023-02-28T19:34:47.336Z,24.58
2023-02-28T19:37:13.984Z,25.33
2023-02-28T19:39:44.091Z,26.13
2023-02-28T19:42:16.287Z,24.23
2023-02-28T19:44:42.931Z,24.42
2023-02-28T19:47:09.754Z,24.63
2023-02-28T19:49:36.268Z,22.23
2023-02-28T19:52:03.062Z,24.30
2023-02-28T19:54:30.052Z,22.95
2023-02-28T19:56:58.287Z,25.40
2023-02-28T19:59:35.759Z,22.52
2023-02-28T20:02:05.424Z,21.42
2023-02-28T20:04:32.030Z,24.05
2023-02-28T20:06:58.620Z,23.05
2023-02-28T20:09:25.242Z,24.30
2023-02-28T20:11:52.059Z,22.23
2023-02-28T20:14:18.732Z,22.08
2023-02-28T20:16:45.951Z,23.52
2023-02-28T20:19:13.095Z,23.08
2023-02-28T20:21:41.185Z,21.60
2023-02-28T20:24:08.012Z,22.38
2023-02-28T20:26:34.858Z,23.20
2023-02-28T20:29:01.390Z,22.95
2023-02-28T20:31:28.629Z,23.20
2023-02-28T20:33:55.278Z,22.50
2023-02-28T20:36:22.627Z,22.50
2023-02-28T20:38:50.807Z,22.45
2023-02-28T20:41:17.557Z,35.85
2023-02-28T20:43:44.740Z,24.65
2023-02-28T20:46:11.583Z,23.75
2023-02-28T20:48:38.771Z,24.58
2023-02-28T20:51:06.106Z,24.27
2023-02-28T20:53:34.560Z,23.27
2023-02-28T20:56:02.143Z,22.30
2023-02-28T20:58:31.812Z,22.52
2023-02-28T21:01:15.900Z,21.90
2023-02-28T21:03:43.728Z,23.73
2023-02-28T21:06:10.656Z,22.25
2023-02-28T21:08:38.603Z,23.50
2023-02-28T21:11:14.026Z,23.35
2023-02-28T21:13:42.706Z,23.67
2023-02-28T21:16:12.007Z,23.63
2023-02-28T21:18:39.063Z,25.50
2023-02-28T21:21:07.888Z,22.95
2023-02-28T21:23:34.598Z,24.40
2023-02-28T21:26:05.231Z,24.30
2023-02-28T21:28:32.741Z,25.08
2023-02-28T21:31:07.061Z,24.15
2023-02-28T21:33:34.615Z,23.23
2023-02-28T21:36:03.406Z,24.17
2023-02-28T21:38:30.301Z,22.83
2023-02-28T21:41:02.510Z,23.23
2023-02-28T21:43:29.052Z,23.80
2023-02-28T21:45:55.596Z,24.15
2023-02-28T21:48:22.133Z,23.52
2023-02-28T21:50:56.313Z,24.67
2023-02-28T21:53:22.872Z,24.58
2023-02-28T21:55:49.402Z,24.23
2023-02-28T21:58:16.057Z,23.83
2023-02-28T22:00:42.598Z,23.80
2023-02-28T22:03:09.156Z,23.40
2023-02-28T22:05:35.721Z,25.77
2023-02-28T22:08:02.324Z,25.08
2023-02-28T22:10:28.855Z,24.52
2023-02-28T22:12:55.485Z,24.90
2023-02-28T22:15:22.032Z,24.35
2023-02-28T22:17:48.532Z,26.25
2023-02-28T22:20:15.177Z,25.30
2023-02-28T22:22:41.778Z,26.88
2023-02-28T22:25:09.881Z,26.70
2023-02-28T22:27:36.491Z,23.30
2023-02-28T22:30:03.082Z,25.23
2023-02-28T22:32:29.698Z,27.17
2023-02-28T22:34:56.345Z,25.85
2023-02-28T22:37:22.897Z,24.63
2023-02-28T22:39:49.416Z,24.88
2023-02-28T22:42:15.952Z,27.38
2023-02-28T22:44:42.558Z,25.30
2023-02-28T22:47:09.152Z,26.70
2023-02-28T22:49:35.723Z,26.75
2023-02-28T22:52:02.400Z,27.48
2023-02-28T22:54:28.937Z,26.05
2023-02-28T22:56:55.544Z,25.80
2023-02-28T22:59:22.058Z,26.42
2023-02-28T23:01:48.630Z,27.75
2023-02-28T23:04:15.268Z,27.92
2023-02-28T23:06:43.259Z,28.52
2023-02-28T23:09:21.347Z,26.63
2023-02-28T23:11:50.590Z,26.00
2023-02-28T23:14:18.794Z,25.95
2023-02-28T23:16:50.797Z,26.05
2023-02-28T23:19:20.742Z,27.75
2023-02-28T23:21:47.927Z,29.00
2023-02-28T23:24:16.843Z,27.30
2023-02-28T23:26:45.948Z,26.92
2023-02-28T23:29:14.032Z,29.67
2023-02-28T23:31:41.244Z,27.23
2023-02-28T23:34:09.117Z,26.83
2023-02-28T23:36:35.625Z,27.55
2023-02-28T23:39:02.229Z,29.77
2023-02-28T23:41:28.752Z,27.38
2023-02-28T23:43:56.062Z,26.58
2023-02-28T23:46:22.883Z,27.88
2023-02-28T23:48:49.496Z,27.90
2023-02-28T23:51:19.034Z,26.75
2023-02-28T23:53:49.161Z,27.95
2023-02-28T23:56:25.220Z,27.63
2023-02-28T23:58:52.009Z,27.77
